createdAt,value
2023-04-19T00:01:11.293Z,78.29
2023-04-19T00:03:39.577Z,79.74
2023-04-19T00:06:10.386Z,78.84
2023-04-19T00:08:38.792Z,77.36
2023-04-19T00:11:06.878Z,78.04
2023-04-19T00:13:36.477Z,77.83
2023-04-19T00:16:08.297Z,76.84
2023-04-19T00:18:36.588Z,77.72
2023-04-19T00:21:05.633Z,76.20
2023-04-19T00:23:37.030Z,75.63
2023-04-19T00:26:05.896Z,77.25
2023-04-19T00:28:36.204Z,76.69
2023-04-19T00:31:04.843Z,77.09
2023-04-19T00:33:34.286Z,77.52
2023-04-19T00:36:02.615Z,77.22
2023-04-19T00:38:31.221Z,76.58
2023-04-19T00:40:59.747Z,78.09
2023-04-19T00:43:28.057Z,78.57
2023-04-19T00:45:57.877Z,79.00
2023-04-19T00:48:28.792Z,80.28
2023-04-19T00:50:57.346Z,79.82
2023-04-19T00:53:25.649Z,79.78
2023-04-19T00:55:55.377Z,80.59
2023-04-19T00:58:24.175Z,79.57
2023-04-19T01:00:52.528Z,80.06
2023-04-19T01:03:23.477Z,80.86
2023-04-19T01:05:52.507Z,80.73
2023-04-19T01:08:20.661Z,81.23
2023-04-19T01:10:48.703Z,80.31
2023-04-19T01:13:17.409Z,79.91
2023-04-19T01:15:45.873Z,80.95
2023-04-19T01:18:15.073Z,81.62
2023-04-19T01:20:45.498Z,81.88
2023-04-19T01:23:15.071Z,82.02
2023-04-19T01:25:43.178Z,81.47
2023-04-19T01:28:11.627Z,81.90
2023-04-19T01:30:39.967Z,82.05
2023-04-19T01:33:09.165Z,81.08
2023-04-19T01:35:37.362Z,81.45
2023-04-19T01:38:05.551Z,82.06
2023-04-19T01:40:35.371Z,82.51
2023-04-19T01:43:08.435Z,82.03
2023-04-19T01:45:37.432Z,82.88
2023-04-19T01:48:06.098Z,81.91
2023-04-19T01:50:35.864Z,82.00
2023-04-19T01:53:06.216Z,81.53
2023-04-19T01:55:36.325Z,82.86
2023-04-19T01:58:04.420Z,82.75
2023-04-19T02:00:33.052Z,82.46
2023-04-19T02:03:05.923Z,82.53
2023-04-19T02:05:34.147Z,83.27
2023-04-19T02:08:05.534Z,82.34
2023-04-19T02:10:37.572Z,81.98
2023-04-19T02:13:05.797Z,80.44
2023-04-19T02:15:35.383Z,80.97
2023-04-19T02:18:06.854Z,80.47
2023-04-19T02:20:35.364Z,81.47
2023-04-19T02:23:05.054Z,81.29
2023-04-19T02:25:33.186Z,81.43
2023-04-19T02:28:02.752Z,81.65
2023-04-19T02:30:31.519Z,82.04
2023-04-19T02:32:59.862Z,82.84
2023-04-19T02:35:28.591Z,83.71
2023-04-19T02:38:00.288Z,83.70
2023-04-19T02:40:28.829Z,83.16
2023-04-19T02:42:59.891Z,83.60
2023-04-19T02:45:29.298Z,84.55
2023-04-19T02:47:58.849Z,83.72
2023-04-19T02:50:28.362Z,84.49
2023-04-19T02:52:56.899Z,85.96
2023-04-19T02:55:27.207Z,85.94
2023-04-19T02:58:05.955Z,84.26
2023-04-19T03:00:39.934Z,84.66
2023-04-19T03:03:12.268Z,84.97
2023-04-19T03:05:40.571Z,84.96
2023-04-19T03:08:10.861Z,83.90
2023-04-19T03:10:39.318Z,83.59
2023-04-19T03:13:07.727Z,83.04
2023-04-19T03:15:36.362Z,83.44
2023-04-19T03:18:06.386Z,83.17
2023-04-19T03:20:36.114Z,83.91
2023-04-19T03:23:04.794Z,83.50
2023-04-19T03:25:34.494Z,83.13
2023-04-19T03:28:16.785Z,83.91
2023-04-19T03:31:04.792Z,84.46
2023-04-19T03:33:34.499Z,84.32
2023-04-19T03:36:02.678Z,84.13
2023-04-19T03:38:30.909Z,83.29
2023-04-19T03:41:02.425Z,84.18
2023-04-19T03:43:36.135Z,83.20
2023-04-19T03:46:04.697Z,83.14
2023-04-19T03:48:35.659Z,83.31
2023-04-19T03:51:04.761Z,82.74
2023-04-19T03:53:33.095Z,82.64
2023-04-19T03:56:01.494Z,83.44
2023-04-19T03:58:30.123Z,83.44
2023-04-19T04:01:05.615Z,83.11
2023-04-19T04:03:35.648Z,83.35
2023-04-19T04:06:05.983Z,82.30
2023-04-19T04:08:34.420Z,82.63
2023-04-19T04:11:02.287Z,83.10
2023-04-19T04:13:31.041Z,82.72
2023-04-19T04:16:08.727Z,82.99
2023-04-19T04:18:39.015Z,82.99
2023-04-19T04:21:11.154Z,82.94
2023-04-19T04:23:42.895Z,84.54
2023-04-19T04:26:17.630Z,83.11
2023-04-19T04:29:01.890Z,83.79
2023-04-19T04:31:31.777Z,83.83
2023-04-19T04:34:01.522Z,84.67
2023-04-19T04:36:31.113Z,85.09
2023-04-19T04:39:01.951Z,86.22
2023-04-19T04:41:31.520Z,86.07
2023-04-19T04:44:12.470Z,85.51
2023-04-19T04:46:50.769Z,86.64
2023-04-19T04:49:26.348Z,86.34
2023-04-19T04:51:54.316Z,85.73
2023-04-19T04:54:23.260Z,83.92
2023-04-19T04:56:53.308Z,84.95
2023-04-19T04:59:21.242Z,85.25
2023-04-19T05:01:50.898Z,83.86
2023-04-19T05:04:19.826Z,83.33
2023-04-19T05:06:49.158Z,82.45
2023-04-19T05:09:22.926Z,82.51
2023-04-19T05:11:51.792Z,82.87
2023-04-19T05:14:20.368Z,82.09
2023-04-19T05:16:52.343Z,81.20
2023-04-19T05:19:24.122Z,82.47
2023-04-19T05:22:00.270Z,81.62
2023-04-19T05:24:28.138Z,81.81
2023-04-19T05:26:57.121Z,82.25
2023-04-19T05:29:26.893Z,82.17
2023-04-19T05:31:56.533Z,81.71
2023-04-19T05:34:33.499Z,82.08
2023-04-19T05:37:03.963Z,82.78
2023-04-19T05:39:32.092Z,81.56
2023-04-19T05:42:02.424Z,82.54
2023-04-19T05:44:31.885Z,81.13
2023-04-19T05:47:00.078Z,81.66
2023-04-19T05:49:57.229Z,81.12
2023-04-19T05:52:42.182Z,81.10
2023-04-19T05:55:10.761Z,81.20
2023-04-19T05:57:43.666Z,81.18
2023-04-19T06:00:12.712Z,80.50
2023-04-19T06:02:50.901Z,79.94
2023-04-19T06:05:19.273Z,80.21
2023-04-19T06:07:55.037Z,79.58
2023-04-19T06:10:23.570Z,80.42
2023-04-19T06:12:51.452Z,80.11
2023-04-19T06:15:19.499Z,80.35
2023-04-19T06:17:48.078Z,78.59
2023-04-19T06:20:16.104Z,78.92
2023-04-19T06:22:45.970Z,78.05
2023-04-19T06:25:15.509Z,77.12
2023-04-19T06:27:43.537Z,78.85
2023-04-19T06:30:14.419Z,78.55
2023-04-19T06:32:42.485Z,76.59
2023-04-19T06:35:10.849Z,74.77
2023-04-19T06:37:38.878Z,73.83
2023-04-19T06:40:08.524Z,75.01
2023-04-19T06:42:37.879Z,76.25
2023-04-19T06:45:08.866Z,77.26
2023-04-19T06:47:37.049Z,76.57
2023-04-19T06:50:05.634Z,76.12
2023-04-19T06:52:33.560Z,75.81
2023-04-19T06:55:01.684Z,75.76
2023-04-19T06:57:29.612Z,75.42
2023-04-19T06:59:59.121Z,74.74
2023-04-19T07:02:27.165Z,74.82
2023-04-19T07:04:55.863Z,73.44
2023-04-19T07:07:24.147Z,72.92
2023-04-19T07:09:52.270Z,72.47
2023-04-19T07:12:20.607Z,72.74
2023-04-19T07:14:48.704Z,73.85
2023-04-19T07:17:18.736Z,73.86
2023-04-19T07:19:48.636Z,75.39
2023-04-19T07:22:16.694Z,73.41
2023-04-19T07:24:45.337Z,74.22
2023-04-19T07:27:14.372Z,71.86
2023-04-19T07:29:43.346Z,72.87
2023-04-19T07:32:11.627Z,70.66
2023-04-19T07:34:43.722Z,72.79
2023-04-19T07:37:11.692Z,71.34
2023-04-19T07:39:39.632Z,72.78
2023-04-19T07:42:07.615Z,73.20
2023-04-19T07:44:35.661Z,71.77
2023-04-19T07:47:06.748Z,71.81
2023-04-19T07:49:35.798Z,70.13
2023-04-19T07:52:08.791Z,69.82
2023-04-19T07:54:39.410Z,67.10
2023-04-19T07:57:07.777Z,68.84
2023-04-19T07:59:35.707Z,67.69
2023-04-19T08:02:03.768Z,68.25
2023-04-19T08:04:32.551Z,65.99
2023-04-19T08:07:02.224Z,67.30
2023-04-19T08:09:32.927Z,65.67
2023-04-19T08:12:01.337Z,67.63
2023-04-19T08:14:40.291Z,64.54
2023-04-19T08:17:25.123Z,63.23
2023-04-19T08:19:55.043Z,66.10
2023-04-19T08:22:22.914Z,65.97
2023-04-19T08:24:52.801Z,67.54
2023-04-19T08:27:21.243Z,66.07
2023-04-19T08:29:49.262Z,66.79
2023-04-19T08:32:17.284Z,65.00
2023-04-19T08:34:46.307Z,65.81
2023-04-19T08:37:14.285Z,65.11
2023-04-19T08:39:42.137Z,66.71
2023-04-19T08:42:24.719Z,67.66
2023-04-19T08:45:26.123Z,63.92
2023-04-19T08:47:59.574Z,65.31
2023-04-19T08:50:45.328Z,66.61
2023-04-19T08:53:25.671Z,66.12
2023-04-19T08:58:50.363Z,69.62
2023-04-19T09:01:34.096Z,69.36
2023-04-19T09:04:26.329Z,69.54
2023-04-19T09:06:54.141Z,65.52
2023-04-19T09:09:36.510Z,66.47
2023-04-19T09:12:17.572Z,68.58
2023-04-19T09:17:19.194Z,65.07
2023-04-19T09:19:48.940Z,67.62
2023-04-19T09:22:17.401Z,68.66
2023-04-19T09:25:22.572Z,69.85
2023-04-19T09:27:37.464Z,66.94
2023-04-19T09:30:14.784Z,67.51
2023-04-19T09:32:49.906Z,65.15
2023-04-19T09:35:20.145Z,65.65
2023-04-19T09:38:05.746Z,63.79
2023-04-19T09:40:34.831Z,61.51
2023-04-19T09:43:22.959Z,63.36
2023-04-19T09:45:52.592Z,61.46
2023-04-19T09:48:20.937Z,62.83
2023-04-19T09:50:58.838Z,60.45
2023-04-19T09:53:29.863Z,57.55
2023-04-19T09:56:02.337Z,55.26
2023-04-19T09:58:42.490Z,60.62
2023-04-19T10:01:21.993Z,59.50
2023-04-19T10:03:51.587Z,58.42
2023-04-19T10:08:55.679Z,61.74
2023-04-19T10:11:25.114Z,64.38
2023-04-19T10:13:58.511Z,62.65
2023-04-19T10:16:28.505Z,65.28
2023-04-19T10:18:57.657Z,64.96
2023-04-19T10:21:27.836Z,65.16
2023-04-19T10:23:56.795Z,64.46
2023-04-19T10:26:24.842Z,66.56
2023-04-19T10:28:57.493Z,65.64
2023-04-19T10:31:28.221Z,66.17
2023-04-19T10:33:57.476Z,66.04
2023-04-19T10:36:28.620Z,66.59
2023-04-19T10:38:57.010Z,66.59
2023-04-19T10:41:25.114Z,66.13
2023-04-19T10:44:11.421Z,63.91
2023-04-19T10:46:41.448Z,64.32
2023-04-19T10:49:13.631Z,64.27
2023-04-19T10:51:48.615Z,62.70
2023-04-19T10:54:31.564Z,63.11
2023-04-19T10:57:04.736Z,64.98
2023-04-19T10:59:33.557Z,64.38
2023-04-19T11:02:04.688Z,66.35
2023-04-19T11:08:07.696Z,68.69
2023-04-19T11:10:37.087Z,68.63
2023-04-19T11:13:25.332Z,70.70
2023-04-19T11:16:26.109Z,70.75
2023-04-19T11:19:12.317Z,71.62
2023-04-19T11:21:49.484Z,71.63
2023-04-19T11:24:53.448Z,72.67
2023-04-19T11:27:24.315Z,73.22
2023-04-19T11:30:08.203Z,74.05
2023-04-19T11:32:50.092Z,74.79
2023-04-19T11:35:21.255Z,76.04
2023-04-19T11:37:56.609Z,77.81
2023-04-19T11:40:36.775Z,79.52
2023-04-19T11:43:12.010Z,80.24
2023-04-19T11:45:40.597Z,81.48
2023-04-19T11:48:15.731Z,84.02
2023-04-19T11:50:46.960Z,85.57
2023-04-19T11:53:17.184Z,85.60
2023-04-19T11:55:49.244Z,83.81
2023-04-19T11:58:29.781Z,83.60
2023-04-19T12:01:01.144Z,83.36
2023-04-19T12:03:31.637Z,83.29
2023-04-19T12:06:04.156Z,84.16
2023-04-19T12:08:35.151Z,85.16
2023-04-19T12:11:08.053Z,85.43
2023-04-19T12:13:42.080Z,86.70
2023-04-19T12:16:10.864Z,87.03
2023-04-19T12:18:49.272Z,86.62
2023-04-19T12:21:27.917Z,86.12
2023-04-19T12:23:57.698Z,86.35
2023-04-19T12:26:28.632Z,85.67
2023-04-19T12:28:57.136Z,84.54
2023-04-19T12:31:25.373Z,84.31
2023-04-19T12:33:54.880Z,84.59
2023-04-19T12:36:23.824Z,85.38
2023-04-19T12:38:52.713Z,84.18
2023-04-19T12:41:28.882Z,84.04
2023-04-19T12:44:18.338Z,84.11
2023-04-19T12:46:46.529Z,83.58
2023-04-19T12:49:15.085Z,83.21
2023-04-19T12:51:44.659Z,83.58
2023-04-19T12:54:22.559Z,84.53
2023-04-19T12:56:53.634Z,84.32
2023-04-19T12:59:23.894Z,83.20
2023-04-19T13:01:52.958Z,83.12
2023-04-19T13:04:23.088Z,81.48
2023-04-19T13:06:52.578Z,81.27
2023-04-19T13:09:21.775Z,80.92
2023-04-19T13:11:50.058Z,79.99
2023-04-19T13:14:19.463Z,79.15
2023-04-19T13:16:50.879Z,78.45
2023-04-19T13:19:20.257Z,78.23
2023-04-19T13:22:07.304Z,77.70
2023-04-19T13:24:36.248Z,75.19
2023-04-19T13:27:12.801Z,75.22
2023-04-19T13:29:44.305Z,73.42
2023-04-19T13:32:21.295Z,74.96
2023-04-19T13:35:02.281Z,72.73
2023-04-19T13:37:34.408Z,73.44
2023-04-19T13:40:24.763Z,73.57
2023-04-19T13:42:57.285Z,72.91
2023-04-19T13:45:29.045Z,71.42
2023-04-19T13:48:07.857Z,72.80
2023-04-19T13:50:39.342Z,75.38
2023-04-19T13:53:13.397Z,73.87
2023-04-19T13:55:42.047Z,73.80
2023-04-19T13:58:11.364Z,71.48
2023-04-19T14:00:41.070Z,70.73
2023-04-19T14:03:11.530Z,71.16
2023-04-19T14:05:42.022Z,69.42
2023-04-19T14:08:11.189Z,65.54
2023-04-19T14:10:42.606Z,69.55
2023-04-19T14:13:10.849Z,69.23
2023-04-19T14:15:38.841Z,68.22
2023-04-19T14:18:08.052Z,68.72
2023-04-19T14:20:43.283Z,66.18
2023-04-19T14:23:21.980Z,67.48
2023-04-19T14:25:51.560Z,64.56
2023-04-19T14:28:20.702Z,65.44
2023-04-19T14:30:49.940Z,66.04
2023-04-19T14:33:19.078Z,65.66
2023-04-19T14:35:53.317Z,66.51
2023-04-19T14:38:33.575Z,65.62
2023-04-19T14:41:27.780Z,65.81
2023-04-19T14:43:59.703Z,64.77
2023-04-19T14:46:28.370Z,63.42
2023-04-19T14:48:57.563Z,64.63
2023-04-19T14:51:27.871Z,65.84
2023-04-19T14:53:56.202Z,63.94
2023-04-19T14:56:25.274Z,67.28
2023-04-19T14:58:57.019Z,66.89
2023-04-19T15:01:25.320Z,66.86
2023-04-19T15:03:53.820Z,67.05
2023-04-19T15:06:22.905Z,66.28
2023-04-19T15:08:53.823Z,65.09
2023-04-19T15:11:31.160Z,64.96
2023-04-19T15:14:21.663Z,65.23
2023-04-19T15:16:50.999Z,65.74
2023-04-19T15:19:20.929Z,65.09
2023-04-19T15:21:50.704Z,64.64
2023-04-19T15:24:29.568Z,63.19
2023-04-19T15:27:17.879Z,63.09
2023-04-19T15:29:48.120Z,63.14
2023-04-19T15:32:16.079Z,62.67
2023-04-19T15:34:43.883Z,62.77
2023-04-19T15:37:12.116Z,61.79
2023-04-19T15:39:41.604Z,61.73
2023-04-19T15:42:09.701Z,61.87
2023-04-19T15:44:37.737Z,61.51
2023-04-19T15:47:06.035Z,62.45
2023-04-19T15:49:34.013Z,63.53
2023-04-19T15:52:01.983Z,66.06
2023-04-19T15:54:30.460Z,64.05
2023-04-19T15:56:59.907Z,64.06
2023-04-19T15:59:27.712Z,62.20
2023-04-19T16:01:56.307Z,62.37
2023-04-19T16:04:24.798Z,63.11
2023-04-19T16:06:53.074Z,61.89
2023-04-19T16:09:22.765Z,63.49
2023-04-19T16:11:51.651Z,63.02
2023-04-19T16:14:21.501Z,60.32
2023-04-19T16:16:50.091Z,61.62
2023-04-19T16:19:21.939Z,61.59
2023-04-19T16:21:52.653Z,62.36
2023-04-19T16:24:20.723Z,61.12
2023-04-19T16:26:48.784Z,59.94
2023-04-19T16:29:16.927Z,60.55
2023-04-19T16:31:48.582Z,60.64
2023-04-19T16:34:20.007Z,60.95
2023-04-19T16:36:48.630Z,60.55
2023-04-19T16:39:17.288Z,62.03
2023-04-19T16:41:46.201Z,61.81
2023-04-19T16:44:14.786Z,61.88
2023-04-19T16:46:44.761Z,63.58
2023-04-19T16:49:14.507Z,64.52
2023-04-19T16:51:42.693Z,65.30
2023-04-19T16:54:11.401Z,65.32
2023-04-19T16:56:39.486Z,65.02
2023-04-19T16:59:08.124Z,66.60
2023-04-19T17:01:36.720Z,67.90
2023-04-19T17:04:04.957Z,66.21
2023-04-19T17:06:34.499Z,68.07
2023-04-19T17:09:04.880Z,68.00
2023-04-19T17:11:33.229Z,68.05
2023-04-19T17:14:01.352Z,65.46
2023-04-19T17:16:30.973Z,58.65
2023-04-19T17:19:01.546Z,54.17
2023-04-19T17:21:30.098Z,51.99
2023-04-19T17:24:00.508Z,52.00
2023-04-19T17:26:29.929Z,49.38
2023-04-19T17:28:59.908Z,50.29
2023-04-19T17:31:31.229Z,49.29
2023-04-19T17:34:00.072Z,48.88
2023-04-19T17:36:28.750Z,48.46
2023-04-19T17:38:57.046Z,49.44
2023-04-19T17:41:26.330Z,49.54
2023-04-19T17:43:55.445Z,49.08
2023-04-19T17:46:23.487Z,49.68
2023-04-19T17:48:52.698Z,49.95
2023-04-19T17:51:22.344Z,49.43
2023-04-19T17:53:51.470Z,48.84
2023-04-19T17:56:20.771Z,49.00
2023-04-19T17:58:50.332Z,48.90
2023-04-19T18:01:19.950Z,49.23
2023-04-19T18:03:49.030Z,49.42
2023-04-19T18:06:22.081Z,49.56
2023-04-19T18:08:50.407Z,49.50
2023-04-19T18:11:19.570Z,50.55
2023-04-19T18:13:47.352Z,50.13
2023-04-19T18:16:17.497Z,50.25
2023-04-19T18:18:45.968Z,50.23
2023-04-19T18:21:14.489Z,50.17
2023-04-19T18:23:42.780Z,50.31
2023-04-19T18:26:11.561Z,50.90
2023-04-19T18:28:40.193Z,50.58
2023-04-19T18:31:09.017Z,49.87
2023-04-19T18:33:39.024Z,49.91
2023-04-19T18:36:07.506Z,49.87
2023-04-19T18:38:35.765Z,50.08
2023-04-19T18:41:03.825Z,50.47
2023-04-19T18:43:32.009Z,50.38
2023-04-19T18:46:01.378Z,50.94
2023-04-19T18:48:29.973Z,51.57
2023-04-19T18:50:59.800Z,51.59
2023-04-19T18:53:29.587Z,51.40
2023-04-19T18:55:59.071Z,52.08
2023-04-19T18:58:27.484Z,52.13
2023-04-19T19:00:57.272Z,52.84
2023-04-19T19:05:59.926Z,52.25
2023-04-19T19:08:28.423Z,52.32
2023-04-19T19:11:18.349Z,52.43
2023-04-19T19:13:45.208Z,52.45
2023-04-19T19:16:13.481Z,52.74
2023-04-19T19:18:41.829Z,53.27
2023-04-19T19:21:14.447Z,53.33
2023-04-19T19:23:44.639Z,52.64
2023-04-19T19:26:13.756Z,53.07
2023-04-19T19:28:43.340Z,53.32
2023-04-19T19:31:12.562Z,53.25
2023-04-19T19:33:41.022Z,53.20
2023-04-19T19:36:09.558Z,52.38
2023-04-19T19:38:40.723Z,53.08
2023-04-19T19:43:45.292Z,53.28
2023-04-19T19:46:14.395Z,53.38
2023-04-19T19:48:43.133Z,53.42
2023-04-19T19:53:45.288Z,53.14
2023-04-19T19:56:21.399Z,53.29
2023-04-19T19:58:52.183Z,53.05
2023-04-19T20:01:22.549Z,53.15
2023-04-19T20:03:51.475Z,53.83
2023-04-19T20:07:13.468Z,53.75
2023-04-19T20:09:09.330Z,53.93
2023-04-19T20:11:37.731Z,53.81
2023-04-19T20:14:05.993Z,53.88
2023-04-19T20:16:35.344Z,53.66
2023-04-19T20:19:09.509Z,54.11
2023-04-19T20:21:37.984Z,53.86
2023-04-19T20:24:08.341Z,54.26
2023-04-19T20:26:36.572Z,54.39
2023-04-19T20:29:07.924Z,54.20
2023-04-19T20:31:35.871Z,53.83
2023-04-19T20:34:04.450Z,54.45
2023-04-19T20:36:33.066Z,54.25
2023-04-19T20:39:06.492Z,54.41
2023-04-19T20:41:36.013Z,54.26
2023-04-19T20:44:06.539Z,53.77
2023-04-19T20:46:35.606Z,54.40
2023-04-19T20:49:03.933Z,54.82
2023-04-19T20:51:32.700Z,55.75
2023-04-19T20:54:00.685Z,55.77
2023-04-19T20:56:28.723Z,57.03
2023-04-19T20:58:58.049Z,56.81
2023-04-19T21:01:26.308Z,57.57
2023-04-19T21:03:56.746Z,58.06
2023-04-19T21:06:24.858Z,58.69
2023-04-19T21:08:52.814Z,58.29
2023-04-19T21:11:21.005Z,59.17
2023-04-19T21:13:49.025Z,60.88
2023-04-19T21:16:18.531Z,59.95
2023-04-19T21:18:46.656Z,60.85
2023-04-19T21:21:14.546Z,60.09
2023-04-19T21:23:42.438Z,60.23
2023-04-19T21:26:10.495Z,59.78
2023-04-19T21:28:38.422Z,58.84
2023-04-19T21:31:06.576Z,58.30
2023-04-19T21:33:35.893Z,58.74
2023-04-19T21:36:04.016Z,59.29
2023-04-19T21:38:31.914Z,59.42
2023-04-19T21:40:59.859Z,60.21
2023-04-19T21:43:27.817Z,60.68
2023-04-19T21:45:55.780Z,60.64
2023-04-19T21:48:23.730Z,60.56
2023-04-19T21:50:52.894Z,60.37
2023-04-19T21:53:21.160Z,61.16
2023-04-19T21:55:49.979Z,62.46
2023-04-19T21:58:24.418Z,62.94
2023-04-19T22:00:53.675Z,64.69
2023-04-19T22:03:22.012Z,64.49
2023-04-19T22:05:50.056Z,64.85
2023-04-19T22:08:19.270Z,66.01
2023-04-19T22:10:50.220Z,66.90
2023-04-19T22:13:18.867Z,65.77
2023-04-19T22:15:46.909Z,65.72
2023-04-19T22:18:14.872Z,67.07
2023-04-19T22:20:42.906Z,65.68
2023-04-19T22:23:10.868Z,65.16
2023-04-19T22:25:40.244Z,66.74
2023-04-19T22:28:08.473Z,66.42
2023-04-19T22:30:36.528Z,66.04
2023-04-19T22:33:04.593Z,66.52
2023-04-19T22:35:32.904Z,65.97
2023-04-19T22:38:00.803Z,65.55
2023-04-19T22:40:28.937Z,65.61
2023-04-19T22:42:58.382Z,65.04
2023-04-19T22:45:26.487Z,67.23
2023-04-19T22:47:57.709Z,67.36
2023-04-19T22:50:25.787Z,67.37
2023-04-19T22:52:54.260Z,68.10
2023-04-19T22:55:25.094Z,68.58
2023-04-19T22:57:53.101Z,68.33
2023-04-19T23:00:22.457Z,67.53
2023-04-19T23:02:50.700Z,66.80
2023-04-19T23:05:19.023Z,67.38
2023-04-19T23:07:49.561Z,68.19
2023-04-19T23:10:18.293Z,68.52
2023-04-19T23:12:46.967Z,68.08
2023-04-19T23:15:14.912Z,68.08
2023-04-19T23:17:44.811Z,68.32
2023-04-19T23:20:14.009Z,69.08
2023-04-19T23:22:42.106Z,69.02
2023-04-19T23:25:11.026Z,68.49
2023-04-19T23:27:39.054Z,69.20
2023-04-19T23:30:08.942Z,69.37
2023-04-19T23:32:37.012Z,68.79
2023-04-19T23:35:06.907Z,70.00
2023-04-19T23:37:34.942Z,69.57
2023-04-19T23:40:05.723Z,71.87
2023-04-19T23:42:38.125Z,71.69
2023-04-19T23:45:07.774Z,70.94
2023-04-19T23:47:35.723Z,70.76
2023-04-19T23:50:04.603Z,71.02
2023-04-19T23:52:33.856Z,70.97
2023-04-19T23:55:01.690Z,68.97
2023-04-19T23:57:29.592Z,67.40
2023-04-19T23:59:57.462Z,65.90
